sensor_id;sensor_type;location;lat;lon;timestamp;pressure;altitude;pressure_sealevel;temperature;humidity
58467;BME280;44255;49.244;7.726;2023-04-03T03:32:47;99180.31;;;-5.36;75.26
58467;BME280;44255;49.244;7.726;2023-04-03T03:35:12;99178.56;;;-5.37;75.92
58467;BME280;44255;49.244;7.726;2023-04-03T03:37:37;99173.38;;;-5.29;75.38
58467;BME280;44255;49.244;7.726;2023-04-03T03:40:03;99176.69;;;-5.50;75.76
58467;BME280;44255;49.244;7.726;2023-04-03T03:42:28;99180.91;;;-5.65;76.31
58467;BME280;44255;49.244;7.726;2023-04-03T03:44:53;99174.94;;;-5.48;75.86
58467;BME280;44255;49.244;7.726;2023-04-03T03:47:18;99174.13;;;-5.42;75.81
58467;BME280;44255;49.244;7.726;2023-04-03T03:49:44;99184.25;;;-5.83;76.99
58467;BME280;44255;49.244;7.726;2023-04-03T03:52:09;99181.53;;;-5.92;78.09
58467;BME280;44255;49.244;7.726;2023-04-03T03:54:37;99190.91;;;-6.13;78.38
58467;BME280;44255;49.244;7.726;2023-04-03T03:57:03;99183.13;;;-6.04;78.54
58467;BME280;44255;49.244;7.726;2023-04-03T03:59:28;99184.91;;;-6.04;79.00
58467;BME280;44255;49.244;7.726;2023-04-03T04:01:53;99187.44;;;-6.12;78.87
58467;BME280;44255;49.244;7.726;2023-04-03T04:04:19;99187.75;;;-5.84;77.98
58467;BME280;44255;49.244;7.726;2023-04-03T04:06:45;99191.94;;;-6.02;78.59
58467;BME280;44255;49.244;7.726;2023-04-03T04:09:10;99192.78;;;-6.04;78.97
58467;BME280;44255;49.244;7.726;2023-04-03T04:11:35;99195.34;;;-6.10;78.51
58467;BME280;44255;49.244;7.726;2023-04-03T04:14:00;99195.59;;;-5.85;77.88
58467;BME280;44255;49.244;7.726;2023-04-03T04:16:26;99197.03;;;-6.14;78.87
58467;BME280;44255;49.244;7.726;2023-04-03T04:18:51;99197.22;;;-5.97;77.93
58467;BME280;44255;49.244;7.726;2023-04-03T04:21:16;99204.78;;;-6.23;79.10
58467;BME280;44255;49.244;7.726;2023-04-03T04:23:41;99194.38;;;-6.16;78.57
58467;BME280;44255;49.244;7.726;2023-04-03T04:26:06;99199.47;;;-6.30;79.47
58467;BME280;44255;49.244;7.726;2023-04-03T04:28:32;99190.19;;;-6.01;78.44
58467;BME280;44255;49.244;7.726;2023-04-03T04:30:57;99196.22;;;-6.07;78.48
58467;BME280;44255;49.244;7.726;2023-04-03T04:33:22;99202.06;;;-6.31;79.45
58467;BME280;44255;49.244;7.726;2023-04-03T04:35:47;99198.81;;;-6.11;79.69
58467;BME280;44255;49.244;7.726;2023-04-03T04:38:13;99199.00;;;-5.94;78.82
58467;BME280;44255;49.244;7.726;2023-04-03T04:40:38;99190.22;;;-5.96;78.31
58467;BME280;44255;49.244;7.726;2023-04-03T04:43:04;99199.13;;;-5.80;78.23
58467;BME280;44255;49.244;7.726;2023-04-03T04:45:29;99196.22;;;-6.07;78.76
58467;BME280;44255;49.244;7.726;2023-04-03T04:47:55;99207.16;;;-6.42;78.27
58467;BME280;44255;49.244;7.726;2023-04-03T04:50:21;99202.22;;;-6.20;80.18
58467;BME280;44255;49.244;7.726;2023-04-03T04:52:46;99205.66;;;-6.26;79.78
58467;BME280;44255;49.244;7.726;2023-04-03T04:55:11;99210.03;;;-6.25;79.01
58467;BME280;44255;49.244;7.726;2023-04-03T04:57:36;99211.41;;;-6.52;80.15
58467;BME280;44255;49.244;7.726;2023-04-03T05:00:04;99205.56;;;-6.29;79.74
58467;BME280;44255;49.244;7.726;2023-04-03T05:02:29;99204.44;;;-6.51;80.35
58467;BME280;44255;49.244;7.726;2023-04-03T05:04:55;99209.03;;;-6.33;80.30
58467;BME280;44255;49.244;7.726;2023-04-03T05:07:21;99212.75;;;-6.16;79.70
58467;BME280;44255;49.244;7.726;2023-04-03T05:09:46;99212.31;;;-6.51;80.71
58467;BME280;44255;49.244;7.726;2023-04-03T05:12:11;99217.38;;;-6.64;80.11
58467;BME280;44255;49.244;7.726;2023-04-03T05:14:36;99221.13;;;-6.46;80.76
58467;BME280;44255;49.244;7.726;2023-04-03T05:17:01;99215.97;;;-6.38;80.70
58467;BME280;44255;49.244;7.726;2023-04-03T05:19:27;99224.56;;;-6.49;80.30
58467;BME280;44255;49.244;7.726;2023-04-03T05:21:52;99220.22;;;-6.47;79.96
58467;BME280;44255;49.244;7.726;2023-04-03T05:24:17;99223.66;;;-6.52;81.12
58467;BME280;44255;49.244;7.726;2023-04-03T05:26:43;99221.28;;;-6.32;80.19
58467;BME280;44255;49.244;7.726;2023-04-03T05:29:08;99218.53;;;-6.45;80.83
58467;BME280;44255;49.244;7.726;2023-04-03T05:31:34;99219.63;;;-6.27;80.43
58467;BME280;44255;49.244;7.726;2023-04-03T05:33:59;99218.78;;;-6.23;79.96
58467;BME280;44255;49.244;7.726;2023-04-03T05:36:25;99223.94;;;-6.31;80.18
58467;BME280;44255;49.244;7.726;2023-04-03T05:38:50;99226.78;;;-6.12;78.93
58467;BME280;44255;49.244;7.726;2023-04-03T05:41:15;99225.09;;;-6.08;78.45
58467;BME280;44255;49.244;7.726;2023-04-03T05:43:41;99226.81;;;-6.10;79.29
58467;BME280;44255;49.244;7.726;2023-04-03T05:46:14;99225.03;;;-6.13;79.59
58467;BME280;44255;49.244;7.726;2023-04-03T05:48:41;99232.91;;;-6.13;80.39
58467;BME280;44255;49.244;7.726;2023-04-03T05:51:06;99222.03;;;-5.70;78.89
58467;BME280;44255;49.244;7.726;2023-04-03T05:53:35;99219.38;;;-5.73;79.11
58467;BME280;44255;49.244;7.726;2023-04-03T05:56:02;99227.44;;;-5.54;77.91
58467;BME280;44255;49.244;7.726;2023-04-03T05:58:28;99227.38;;;-5.59;78.81
58467;BME280;44255;49.244;7.726;2023-04-03T06:00:53;99224.13;;;-5.35;76.69
58467;BME280;44255;49.244;7.726;2023-04-03T06:03:18;99228.69;;;-5.13;75.59
58467;BME280;44255;49.244;7.726;2023-04-03T06:05:43;99231.50;;;-4.90;74.72
58467;BME280;44255;49.244;7.726;2023-04-03T06:08:09;99239.47;;;-4.76;73.97
58467;BME280;44255;49.244;7.726;2023-04-03T06:10:35;99236.97;;;-4.54;71.65
58467;BME280;44255;49.244;7.726;2023-04-03T06:13:00;99235.19;;;-4.65;72.43
58467;BME280;44255;49.244;7.726;2023-04-03T06:15:26;99235.28;;;-4.41;71.74
58467;BME280;44255;49.244;7.726;2023-04-03T06:17:51;99245.03;;;-4.26;70.60
58467;BME280;44255;49.244;7.726;2023-04-03T06:20:16;99249.47;;;-4.14;70.43
58467;BME280;44255;49.244;7.726;2023-04-03T06:22:42;99244.25;;;-4.07;69.19
58467;BME280;44255;49.244;7.726;2023-04-03T06:25:08;99243.47;;;-3.79;68.03
58467;BME280;44255;49.244;7.726;2023-04-03T06:27:34;99236.47;;;-3.76;67.79
58467;BME280;44255;49.244;7.726;2023-04-03T06:29:59;99235.63;;;-3.62;67.62
58467;BME280;44255;49.244;7.726;2023-04-03T06:32:25;99244.41;;;-3.55;67.18
58467;BME280;44255;49.244;7.726;2023-04-03T06:34:50;99238.28;;;-3.51;66.24
58467;BME280;44255;49.244;7.726;2023-04-03T06:37:17;99242.72;;;-3.38;65.94
58467;BME280;44255;49.244;7.726;2023-04-03T06:39:43;99248.84;;;-3.26;65.26
58467;BME280;44255;49.244;7.726;2023-04-03T06:42:08;99246.22;;;-3.30;65.37
58467;BME280;44255;49.244;7.726;2023-04-03T06:44:34;99242.69;;;-3.22;65.14
58467;BME280;44255;49.244;7.726;2023-04-03T06:46:59;99249.75;;;-3.12;64.01
58467;BME280;44255;49.244;7.726;2023-04-03T06:49:25;99244.47;;;-3.04;63.52
58467;BME280;44255;49.244;7.726;2023-04-03T06:51:50;99247.13;;;-3.03;64.10
58467;BME280;44255;49.244;7.726;2023-04-03T06:54:16;99252.41;;;-2.81;63.24
58467;BME280;44255;49.244;7.726;2023-04-03T06:56:41;99251.50;;;-2.77;63.31
58467;BME280;44255;49.244;7.726;2023-04-03T06:59:07;99255.91;;;-2.66;62.67
58467;BME280;44255;49.244;7.726;2023-04-03T07:01:33;99258.56;;;-2.79;62.98
58467;BME280;44255;49.244;7.726;2023-04-03T07:03:58;99253.28;;;-2.66;63.09
58467;BME280;44255;49.244;7.726;2023-04-03T07:06:24;99257.66;;;-2.62;63.72
58467;BME280;44255;49.244;7.726;2023-04-03T07:08:52;99254.97;;;-2.43;62.69
58467;BME280;44255;49.244;7.726;2023-04-03T07:11:17;99261.97;;;-2.21;61.41
58467;BME280;44255;49.244;7.726;2023-04-03T07:13:42;99258.47;;;-2.31;61.42
58467;BME280;44255;49.244;7.726;2023-04-03T07:16:08;99267.25;;;-2.24;63.08
58467;BME280;44255;49.244;7.726;2023-04-03T07:18:34;99261.09;;;-2.21;63.41
58467;BME280;44255;49.244;7.726;2023-04-03T07:20:59;99263.72;;;-2.09;63.04
58467;BME280;44255;49.244;7.726;2023-04-03T07:23:25;99264.59;;;-1.99;63.34
58467;BME280;44255;49.244;7.726;2023-04-03T07:25:51;99274.19;;;-1.79;62.24
58467;BME280;44255;49.244;7.726;2023-04-03T07:28:17;99261.88;;;-1.80;62.92
58467;BME280;44255;49.244;7.726;2023-04-03T07:30:54;99266.22;;;-1.73;62.15
58467;BME280;44255;49.244;7.726;2023-04-03T07:33:23;99264.44;;;-1.66;62.55
58467;BME280;44255;49.244;7.726;2023-04-03T07:35:49;99266.19;;;-1.65;63.10
58467;BME280;44255;49.244;7.726;2023-04-03T07:38:14;99272.31;;;-1.58;62.87
58467;BME280;44255;49.244;7.726;2023-04-03T07:40:45;99275.91;;;-1.72;62.76
58467;BME280;44255;49.244;7.726;2023-04-03T07:43:10;99269.69;;;-1.57;62.58
58467;BME280;44255;49.244;7.726;2023-04-03T07:45:37;99276.81;;;-1.71;60.73
58467;BME280;44255;49.244;7.726;2023-04-03T07:48:03;99270.63;;;-1.66;61.52
58467;BME280;44255;49.244;7.726;2023-04-03T07:50:28;99282.00;;;-1.53;61.27
58467;BME280;44255;49.244;7.726;2023-04-03T07:52:55;99282.84;;;-1.46;61.37
58467;BME280;44255;49.244;7.726;2023-04-03T07:55:22;99274.03;;;-1.45;60.59
58467;BME280;44255;49.244;7.726;2023-04-03T07:57:48;99273.16;;;-1.50;60.37
58467;BME280;44255;49.244;7.726;2023-04-03T08:00:13;99271.31;;;-1.34;60.38
58467;BME280;44255;49.244;7.726;2023-04-03T08:02:39;99276.66;;;-1.45;60.69
58467;BME280;44255;49.244;7.726;2023-04-03T08:05:04;99288.00;;;-1.24;60.08
58467;BME280;44255;49.244;7.726;2023-04-03T08:07:30;99274.66;;;-1.10;59.01
58467;BME280;44255;49.244;7.726;2023-04-03T08:09:55;99272.88;;;-1.07;59.48
58467;BME280;44255;49.244;7.726;2023-04-03T08:12:21;99273.81;;;-1.11;58.66
58467;BME280;44255;49.244;7.726;2023-04-03T08:14:46;99270.16;;;-0.94;59.16
58467;BME280;44255;49.244;7.726;2023-04-03T08:17:11;99277.19;;;-0.95;58.89
58467;BME280;44255;49.244;7.726;2023-04-03T08:19:40;99278.03;;;-0.86;59.17
58467;BME280;44255;49.244;7.726;2023-04-03T08:22:05;99272.66;;;-0.77;58.25
58467;BME280;44255;49.244;7.726;2023-04-03T08:24:32;99270.88;;;-0.74;57.41
58467;BME280;44255;49.244;7.726;2023-04-03T08:26:58;99266.22;;;-0.50;57.08
58467;BME280;44255;49.244;7.726;2023-04-03T08:29:24;99269.88;;;-0.60;57.96
58467;BME280;44255;49.244;7.726;2023-04-03T08:31:50;99275.91;;;-0.46;58.05
58467;BME280;44255;49.244;7.726;2023-04-03T08:34:15;99264.31;;;-0.35;57.29
58467;BME280;44255;49.244;7.726;2023-04-03T08:36:41;99267.72;;;-0.22;55.74
58467;BME280;44255;49.244;7.726;2023-04-03T08:39:06;99275.72;;;-0.28;54.56
58467;BME280;44255;49.244;7.726;2023-04-03T08:44:38;99279.97;;;-0.10;54.70
58467;BME280;44255;49.244;7.726;2023-04-03T08:49:49;99274.66;;;-0.10;55.25
58467;BME280;44255;49.244;7.726;2023-04-03T08:54:53;99275.59;;;-0.16;55.32
58467;BME280;44255;49.244;7.726;2023-04-03T08:57:26;99279.69;;;0.13;54.43
58467;BME280;44255;49.244;7.726;2023-04-03T08:59:53;99283.34;;;0.03;54.00
58467;BME280;44255;49.244;7.726;2023-04-03T09:04:49;99280.44;;;0.26;53.20
58467;BME280;44255;49.244;7.726;2023-04-03T09:07:23;99275.78;;;0.44;52.69
58467;BME280;44255;49.244;7.726;2023-04-03T09:09:51;99282.84;;;0.45;51.93
58467;BME280;44255;49.244;7.726;2023-04-03T09:12:33;99278.31;;;0.53;52.09
58467;BME280;44255;49.244;7.726;2023-04-03T09:20:19;99272.13;;;0.54;51.79
58467;BME280;44255;49.244;7.726;2023-04-03T09:22:50;99277.09;;;0.79;52.33
58467;BME280;44255;49.244;7.726;2023-04-03T09:25:31;99274.31;;;0.87;51.00
58467;BME280;44255;49.244;7.726;2023-04-03T09:27:59;99277.81;;;0.89;51.58
58467;BME280;44255;49.244;7.726;2023-04-03T09:30:26;99277.94;;;0.79;50.51
58467;BME280;44255;49.244;7.726;2023-04-03T09:32:54;99274.38;;;0.84;49.95
58467;BME280;44255;49.244;7.726;2023-04-03T09:35:34;99265.75;;;0.69;50.74
58467;BME280;44255;49.244;7.726;2023-04-03T09:38:21;99277.13;;;0.76;50.90
58467;BME280;44255;49.244;7.726;2023-04-03T09:40:48;99266.31;;;0.90;49.75
58467;BME280;44255;49.244;7.726;2023-04-03T09:45:43;99273.13;;;1.08;50.18
58467;BME280;44255;49.244;7.726;2023-04-03T09:53:43;99274.75;;;0.57;49.96
58467;BME280;44255;49.244;7.726;2023-04-03T09:58:42;99279.78;;;0.76;49.10
58467;BME280;44255;49.244;7.726;2023-04-03T10:01:33;99268.06;;;0.91;47.94
58467;BME280;44255;49.244;7.726;2023-04-03T10:06:35;99265.53;;;0.81;49.03
58467;BME280;44255;49.244;7.726;2023-04-03T10:09:04;99268.00;;;0.94;49.44
58467;BME280;44255;49.244;7.726;2023-04-03T10:11:30;99269.63;;;1.04;50.41
58467;BME280;44255;49.244;7.726;2023-04-03T10:14:00;99279.06;;;0.66;49.85
58467;BME280;44255;49.244;7.726;2023-04-03T10:16:37;99271.78;;;0.79;49.34
58467;BME280;44255;49.244;7.726;2023-04-03T10:22:02;99270.94;;;0.77;49.23
58467;BME280;44255;49.244;7.726;2023-04-03T10:27:55;99266.31;;;0.88;49.38
58467;BME280;44255;49.244;7.726;2023-04-03T10:30:32;99262.50;;;1.08;47.19
58467;BME280;44255;49.244;7.726;2023-04-03T10:36:33;99267.53;;;1.23;45.03
58467;BME280;44255;49.244;7.726;2023-04-03T10:42:02;99260.03;;;0.95;46.55
58467;BME280;44255;49.244;7.726;2023-04-03T10:50:22;99246.25;;;1.27;45.94
58467;BME280;44255;49.244;7.726;2023-04-03T10:52:57;99251.81;;;1.61;46.41
58467;BME280;44255;49.244;7.726;2023-04-03T10:57:50;99267.69;;;1.67;44.03
58467;BME280;44255;49.244;7.726;2023-04-03T11:00:27;99263.91;;;1.78;44.25
58467;BME280;44255;49.244;7.726;2023-04-03T11:02:57;99258.28;;;1.95;44.33
58467;BME280;44255;49.244;7.726;2023-04-03T11:05:49;99256.38;;;1.54;43.90
58467;BME280;44255;49.244;7.726;2023-04-03T11:08:32;99267.75;;;1.63;44.55
58467;BME280;44255;49.244;7.726;2023-04-03T11:11:01;99267.84;;;1.57;43.40
58467;BME280;44255;49.244;7.726;2023-04-03T11:13:33;99260.50;;;1.71;44.14
58467;BME280;44255;49.244;7.726;2023-04-03T11:16:02;99254.44;;;2.10;42.46
58467;BME280;44255;49.244;7.726;2023-04-03T11:18:36;99257.94;;;2.12;41.47
58467;BME280;44255;49.244;7.726;2023-04-03T11:21:08;99249.88;;;2.15;41.49
58467;BME280;44255;49.244;7.726;2023-04-03T11:23:39;99239.03;;;2.26;43.40
58467;BME280;44255;49.244;7.726;2023-04-03T11:26:11;99241.66;;;2.28;42.09
58467;BME280;44255;49.244;7.726;2023-04-03T11:28:38;99241.28;;;2.46;42.12
58467;BME280;44255;49.244;7.726;2023-04-03T11:31:23;99237.94;;;2.35;41.76
58467;BME280;44255;49.244;7.726;2023-04-03T11:34:19;99235.03;;;2.49;42.84
58467;BME280;44255;49.244;7.726;2023-04-03T11:36:55;99230.97;;;2.72;42.41
58467;BME280;44255;49.244;7.726;2023-04-03T11:39:31;99241.53;;;2.75;41.46
58467;BME280;44255;49.244;7.726;2023-04-03T11:42:23;99231.97;;;3.04;42.29
58467;BME280;44255;49.244;7.726;2023-04-03T11:47:52;99217.56;;;2.76;39.76
58467;BME280;44255;49.244;7.726;2023-04-03T11:50:39;99220.09;;;3.52;41.47
58467;BME280;44255;49.244;7.726;2023-04-03T11:58:17;99216.97;;;3.36;41.14
58467;BME280;44255;49.244;7.726;2023-04-03T12:08:46;99219.22;;;2.80;41.84
58467;BME280;44255;49.244;7.726;2023-04-03T12:16:32;99216.75;;;3.77;41.14
58467;BME280;44255;49.244;7.726;2023-04-03T12:24:04;99207.97;;;4.06;39.24
58467;BME280;44255;49.244;7.726;2023-04-03T12:26:40;99215.97;;;3.73;37.56
58467;BME280;44255;49.244;7.726;2023-04-03T12:29:20;99219.78;;;2.93;38.48
58467;BME280;44255;49.244;7.726;2023-04-03T12:34:54;99205.88;;;4.75;36.65
58467;BME280;44255;49.244;7.726;2023-04-03T12:45:25;99199.34;;;3.95;36.80
58467;BME280;44255;49.244;7.726;2023-04-03T12:47:53;99198.94;;;3.79;37.64
58467;BME280;44255;49.244;7.726;2023-04-03T12:50:30;99198.09;;;3.77;38.09
58467;BME280;44255;49.244;7.726;2023-04-03T12:53:01;99195.63;;;4.02;38.35
58467;BME280;44255;49.244;7.726;2023-04-03T12:55:29;99186.09;;;4.23;37.32
58467;BME280;44255;49.244;7.726;2023-04-03T12:57:54;99185.19;;;3.93;37.24
58467;BME280;44255;49.244;7.726;2023-04-03T13:02:54;99196.66;;;3.32;39.32
58467;BME280;44255;49.244;7.726;2023-04-03T13:05:21;99197.28;;;3.42;37.94
58467;BME280;44255;49.244;7.726;2023-04-03T13:07:57;99182.25;;;3.39;39.22
58467;BME280;44255;49.244;7.726;2023-04-03T13:10:23;99178.09;;;3.92;38.89
58467;BME280;44255;49.244;7.726;2023-04-03T13:12:54;99178.06;;;3.93;37.87
58467;BME280;44255;49.244;7.726;2023-04-03T13:15:30;99177.25;;;4.21;36.14
58467;BME280;44255;49.244;7.726;2023-04-03T13:18:04;99177.72;;;4.36;36.50
58467;BME280;44255;49.244;7.726;2023-04-03T13:20:32;99181.31;;;4.05;36.97
58467;BME280;44255;49.244;7.726;2023-04-03T13:23:02;99184.38;;;3.59;38.96
58467;BME280;44255;49.244;7.726;2023-04-03T13:25:33;99177.41;;;3.53;39.00
58467;BME280;44255;49.244;7.726;2023-04-03T13:28:01;99172.59;;;3.66;38.75
58467;BME280;44255;49.244;7.726;2023-04-03T13:30:30;99178.25;;;3.56;38.63
58467;BME280;44255;49.244;7.726;2023-04-03T13:32:57;99175.16;;;3.38;38.89
58467;BME280;44255;49.244;7.726;2023-04-03T13:38:02;99177.03;;;3.67;38.43
58467;BME280;44255;49.244;7.726;2023-04-03T13:40:28;99187.47;;;3.42;39.17
58467;BME280;44255;49.244;7.726;2023-04-03T13:43:02;99183.38;;;3.30;38.79
58467;BME280;44255;49.244;7.726;2023-04-03T13:45:31;99179.16;;;3.21;39.87
58467;BME280;44255;49.244;7.726;2023-04-03T13:48:10;99176.16;;;3.34;39.13
58467;BME280;44255;49.244;7.726;2023-04-03T13:50:53;99180.44;;;3.06;38.42
58467;BME280;44255;49.244;7.726;2023-04-03T13:53:18;99182.13;;;3.09;39.92
58467;BME280;44255;49.244;7.726;2023-04-03T13:56:06;99188.19;;;3.16;39.42
58467;BME280;44255;49.244;7.726;2023-04-03T13:58:32;99185.53;;;2.79;38.72
58467;BME280;44255;49.244;7.726;2023-04-03T14:03:52;99182.75;;;3.85;37.03
58467;BME280;44255;49.244;7.726;2023-04-03T14:06:17;99173.91;;;3.51;37.81
58467;BME280;44255;49.244;7.726;2023-04-03T14:08:44;99172.41;;;3.41;38.38
58467;BME280;44255;49.244;7.726;2023-04-03T14:11:24;99168.66;;;3.15;37.74
58467;BME280;44255;49.244;7.726;2023-04-03T14:13:52;99171.06;;;3.26;38.81
58467;BME280;44255;49.244;7.726;2023-04-03T14:16:21;99166.44;;;3.33;39.78
58467;BME280;44255;49.244;7.726;2023-04-03T14:18:48;99165.09;;;3.16;38.22
58467;BME280;44255;49.244;7.726;2023-04-03T14:21:16;99173.63;;;3.29;38.13
58467;BME280;44255;49.244;7.726;2023-04-03T14:23:42;99156.94;;;3.22;38.00
58467;BME280;44255;49.244;7.726;2023-04-03T14:26:11;99163.47;;;3.10;37.90
58467;BME280;44255;49.244;7.726;2023-04-03T14:28:37;99164.38;;;3.09;38.67
58467;BME280;44255;49.244;7.726;2023-04-03T14:31:04;99166.97;;;3.11;39.88
58467;BME280;44255;49.244;7.726;2023-04-03T14:33:30;99164.56;;;3.02;40.09
58467;BME280;44255;49.244;7.726;2023-04-03T14:35:59;99165.09;;;3.16;39.58
58467;BME280;44255;49.244;7.726;2023-04-03T14:38:28;99153.78;;;4.61;36.24
58467;BME280;44255;49.244;7.726;2023-04-03T14:40:54;99153.59;;;4.11;36.75
58467;BME280;44255;49.244;7.726;2023-04-03T14:43:20;99165.13;;;3.79;36.99
58467;BME280;44255;49.244;7.726;2023-04-03T14:45:46;99156.59;;;3.98;36.63
58467;BME280;44255;49.244;7.726;2023-04-03T14:48:18;99156.88;;;3.89;37.79
58467;BME280;44255;49.244;7.726;2023-04-03T14:50:44;99154.88;;;3.65;37.75
58467;BME280;44255;49.244;7.726;2023-04-03T14:53:11;99146.13;;;4.22;36.61
58467;BME280;44255;49.244;7.726;2023-04-03T14:55:37;99145.75;;;6.15;33.88
58467;BME280;44255;49.244;7.726;2023-04-03T14:58:03;99150.53;;;5.32;34.60
58467;BME280;44255;49.244;7.726;2023-04-03T15:00:28;99146.28;;;5.27;35.41
58467;BME280;44255;49.244;7.726;2023-04-03T15:02:53;99136.31;;;6.05;33.20
58467;BME280;44255;49.244;7.726;2023-04-03T15:05:18;99129.97;;;6.98;32.89
58467;BME280;44255;49.244;7.726;2023-04-03T15:07:48;99133.75;;;7.75;32.13
58467;BME280;44255;49.244;7.726;2023-04-03T15:10:17;99132.19;;;8.10;31.41
58467;BME280;44255;49.244;7.726;2023-04-03T15:12:43;99122.81;;;8.38;30.41
58467;BME280;44255;49.244;7.726;2023-04-03T15:15:09;99126.03;;;8.63;29.62
58467;BME280;44255;49.244;7.726;2023-04-03T15:17:35;99120.97;;;9.63;29.71
58467;BME280;44255;49.244;7.726;2023-04-03T15:20:01;99123.56;;;10.16;28.10
58467;BME280;44255;49.244;7.726;2023-04-03T15:22:27;99114.94;;;10.25;27.73
58467;BME280;44255;49.244;7.726;2023-04-03T15:24:52;99119.34;;;11.36;26.97
58467;BME280;44255;49.244;7.726;2023-04-03T15:27:17;99113.09;;;10.58;27.68
58467;BME280;44255;49.244;7.726;2023-04-03T15:29:44;99115.19;;;9.71;27.88
58467;BME280;44255;49.244;7.726;2023-04-03T15:32:10;99131.28;;;7.90;30.98
58467;BME280;44255;49.244;7.726;2023-04-03T15:34:35;99132.56;;;7.81;31.61
58467;BME280;44255;49.244;7.726;2023-04-03T15:37:01;99133.44;;;6.33;32.04
58467;BME280;44255;49.244;7.726;2023-04-03T15:39:26;99150.81;;;5.25;34.68
58467;BME280;44255;49.244;7.726;2023-04-03T15:41:52;99147.78;;;5.34;33.48
58467;BME280;44255;49.244;7.726;2023-04-03T15:44:18;99157.09;;;4.70;34.18
58467;BME280;44255;49.244;7.726;2023-04-03T15:46:45;99153.03;;;5.88;33.29
58467;BME280;44255;49.244;7.726;2023-04-03T15:49:13;99150.25;;;7.45;31.20
58467;BME280;44255;49.244;7.726;2023-04-03T15:51:38;99122.91;;;8.17;29.40
58467;BME280;44255;49.244;7.726;2023-04-03T15:54:03;99128.03;;;8.77;28.52
58467;BME280;44255;49.244;7.726;2023-04-03T15:56:29;99116.13;;;9.70;28.43
58467;BME280;44255;49.244;7.726;2023-04-03T15:58:54;99120.59;;;9.87;27.55
58467;BME280;44255;49.244;7.726;2023-04-03T16:01:19;99112.16;;;9.77;27.21
58467;BME280;44255;49.244;7.726;2023-04-03T16:03:45;99114.50;;;9.83;27.19
58467;BME280;44255;49.244;7.726;2023-04-03T16:06:12;99118.34;;;9.10;27.64
58467;BME280;44255;49.244;7.726;2023-04-03T16:08:37;99134.75;;;7.31;30.64
58467;BME280;44255;49.244;7.726;2023-04-03T16:11:03;99148.84;;;5.55;32.92
58467;BME280;44255;49.244;7.726;2023-04-03T16:13:28;99140.56;;;4.85;34.01
58467;BME280;44255;49.244;7.726;2023-04-03T16:15:54;99136.59;;;4.70;34.32
58467;BME280;44255;49.244;7.726;2023-04-03T16:18:20;99137.91;;;4.85;34.43
58467;BME280;44255;49.244;7.726;2023-04-03T16:20:45;99136.03;;;4.60;34.11
58467;BME280;44255;49.244;7.726;2023-04-03T16:23:11;99132.78;;;6.27;31.75
58467;BME280;44255;49.244;7.726;2023-04-03T16:25:36;99138.38;;;7.30;30.12
58467;BME280;44255;49.244;7.726;2023-04-03T16:28:02;99129.22;;;7.76;27.59
58467;BME280;44255;49.244;7.726;2023-04-03T16:30:28;99132.84;;;8.15;27.57
58467;BME280;44255;49.244;7.726;2023-04-03T16:32:54;99129.78;;;8.59;27.28
58467;BME280;44255;49.244;7.726;2023-04-03T16:35:20;99127.63;;;8.68;27.63
58467;BME280;44255;49.244;7.726;2023-04-03T16:37:45;99121.38;;;8.85;26.97
58467;BME280;44255;49.244;7.726;2023-04-03T16:40:11;99118.06;;;8.43;27.00
58467;BME280;44255;49.244;7.726;2023-04-03T16:42:37;99116.50;;;8.00;27.73
58467;BME280;44255;49.244;7.726;2023-04-03T16:45:05;99115.94;;;8.13;27.83
58467;BME280;44255;49.244;7.726;2023-04-03T16:47:31;99122.59;;;8.23;27.75
58467;BME280;44255;49.244;7.726;2023-04-03T16:49:56;99129.66;;;7.67;28.54
58467;BME280;44255;49.244;7.726;2023-04-03T16:52:21;99129.66;;;6.84;28.98
58467;BME280;44255;49.244;7.726;2023-04-03T16:54:47;99134.63;;;6.26;30.24
58467;BME280;44255;49.244;7.726;2023-04-03T16:57:12;99147.59;;;5.40;30.60
58467;BME280;44255;49.244;7.726;2023-04-03T16:59:37;99150.66;;;4.48;32.21
58467;BME280;44255;49.244;7.726;2023-04-03T17:02:02;99152.66;;;3.81;32.93
58467;BME280;44255;49.244;7.726;2023-04-03T17:04:28;99154.44;;;3.81;33.17
58467;BME280;44255;49.244;7.726;2023-04-03T17:06:54;99152.34;;;4.22;32.52
58467;BME280;44255;49.244;7.726;2023-04-03T17:09:19;99149.09;;;3.81;33.26
58467;BME280;44255;49.244;7.726;2023-04-03T17:11:46;99154.22;;;3.57;33.97
58467;BME280;44255;49.244;7.726;2023-04-03T17:14:11;99153.63;;;3.47;34.54
58467;BME280;44255;49.244;7.726;2023-04-03T17:16:37;99155.50;;;3.09;35.09
58467;BME280;44255;49.244;7.726;2023-04-03T17:19:03;99161.38;;;2.87;35.47
58467;BME280;44255;49.244;7.726;2023-04-03T17:21:29;99157.06;;;2.81;36.13
58467;BME280;44255;49.244;7.726;2023-04-03T17:23:59;99156.88;;;2.91;36.63
58467;BME280;44255;49.244;7.726;2023-04-03T17:26:26;99158.88;;;2.45;37.13
58467;BME280;44255;49.244;7.726;2023-04-03T17:28:52;99154.41;;;2.45;35.86
58467;BME280;44255;49.244;7.726;2023-04-03T17:31:17;99156.22;;;2.43;36.58
58467;BME280;44255;49.244;7.726;2023-04-03T17:33:43;99153.91;;;2.26;36.50
58467;BME280;44255;49.244;7.726;2023-04-03T17:36:09;99156.97;;;2.07;37.72
58467;BME280;44255;49.244;7.726;2023-04-03T17:38:34;99158.50;;;1.78;38.10
58467;BME280;44255;49.244;7.726;2023-04-03T17:41:01;99155.16;;;1.68;37.53
58467;BME280;44255;49.244;7.726;2023-04-03T17:43:27;99165.88;;;1.64;37.20
58467;BME280;44255;49.244;7.726;2023-04-03T17:45:53;99164.00;;;1.69;37.06
58467;BME280;44255;49.244;7.726;2023-04-03T17:48:27;99162.59;;;1.49;37.81
58467;BME280;44255;49.244;7.726;2023-04-03T17:50:52;99164.72;;;1.32;37.56
58467;BME280;44255;49.244;7.726;2023-04-03T17:53:18;99162.06;;;1.32;38.26
58467;BME280;44255;49.244;7.726;2023-04-03T17:55:43;99167.25;;;1.38;38.47
58467;BME280;44255;49.244;7.726;2023-04-03T17:58:08;99162.06;;;1.32;38.42
58467;BME280;44255;49.244;7.726;2023-04-03T18:00:35;99162.66;;;0.99;38.98
58467;BME280;44255;49.244;7.726;2023-04-03T18:03:00;99166.19;;;0.98;38.90
58467;BME280;44255;49.244;7.726;2023-04-03T18:05:27;99167.63;;;1.18;38.65
58467;BME280;44255;49.244;7.726;2023-04-03T18:07:53;99162.00;;;0.85;39.56
58467;BME280;44255;49.244;7.726;2023-04-03T18:10:19;99163.94;;;0.75;40.90
58467;BME280;44255;49.244;7.726;2023-04-03T18:12:44;99162.59;;;0.46;42.70
58467;BME280;44255;49.244;7.726;2023-04-03T18:15:10;99162.66;;;0.43;43.17
58467;BME280;44255;49.244;7.726;2023-04-03T18:17:35;99172.56;;;0.28;43.73